createdAt,value
2023-02-18T00:05:33.138Z,37.80
2023-02-18T00:11:44.821Z,37.40
2023-02-18T00:17:56.394Z,37.70
2023-02-18T00:24:10.051Z,38.30
2023-02-18T00:30:18.845Z,38.80
2023-02-18T00:36:26.639Z,37.80
2023-02-18T00:42:37.614Z,37.40
2023-02-18T00:48:45.665Z,37.20
2023-02-18T00:54:53.911Z,37.40
2023-02-18T01:01:07.224Z,37.70
2023-02-18T01:07:17.114Z,38.50
2023-02-18T01:13:25.362Z,37.60
2023-02-18T01:19:36.251Z,37.00
2023-02-18T01:25:47.512Z,36.80
2023-02-18T01:31:59.167Z,37.00
2023-02-18T01:38:09.842Z,36.70
2023-02-18T01:44:25.549Z,36.20
2023-02-18T01:50:35.436Z,36.50
2023-02-18T01:56:47.700Z,36.70
2023-02-18T02:03:00.137Z,36.80
2023-02-18T02:09:08.845Z,36.80
2023-02-18T02:15:36.535Z,36.70
2023-02-18T02:22:17.558Z,37.00
2023-02-18T02:28:46.581Z,36.90
2023-02-18T02:34:59.161Z,37.30
2023-02-18T02:41:14.438Z,37.20
2023-02-18T02:53:45.512Z,37.50
2023-02-18T02:59:55.126Z,37.10
2023-02-18T03:06:14.909Z,37.30
2023-02-18T03:12:31.418Z,37.00
2023-02-18T03:18:42.891Z,37.10
2023-02-18T03:24:51.875Z,37.10
2023-02-18T03:31:06.710Z,36.90
2023-02-18T03:37:14.181Z,37.30
2023-02-18T03:43:25.829Z,37.00
2023-02-18T03:49:35.292Z,37.00
2023-02-18T03:55:44.318Z,36.80
2023-02-18T04:01:56.233Z,36.70
2023-02-18T04:08:04.115Z,36.70
2023-02-18T04:14:15.664Z,36.40
2023-02-18T04:20:27.926Z,36.50
2023-02-18T04:26:36.689Z,36.40
2023-02-18T04:32:46.363Z,36.40
2023-02-18T04:38:57.691Z,36.40
2023-02-18T04:45:07.442Z,36.30
2023-02-18T04:51:18.098Z,36.50
2023-02-18T04:57:27.581Z,36.30
2023-02-18T05:03:37.005Z,36.60
2023-02-18T05:09:44.562Z,36.30
2023-02-18T05:15:53.678Z,36.10
2023-02-18T05:22:06.168Z,36.10
2023-02-18T05:28:14.323Z,35.90
2023-02-18T05:34:23.226Z,36.10
2023-02-18T05:40:32.993Z,36.20
2023-02-18T05:46:44.752Z,36.10
2023-02-18T05:52:57.180Z,35.80
2023-02-18T05:59:10.774Z,35.80
2023-02-18T06:05:20.160Z,35.80
2023-02-18T06:11:29.282Z,36.20
2023-02-18T06:17:38.398Z,35.90
2023-02-18T06:23:47.571Z,35.70
2023-02-18T06:30:01.003Z,35.80
2023-02-18T06:36:13.864Z,36.20
2023-02-18T06:42:24.664Z,36.40
2023-02-18T06:48:35.842Z,35.70
2023-02-18T06:54:45.876Z,35.80
2023-02-18T07:00:55.978Z,35.90
2023-02-18T07:07:06.834Z,36.20
2023-02-18T07:13:19.385Z,36.60
2023-02-18T07:19:27.459Z,35.90
2023-02-18T07:25:34.732Z,35.80
2023-02-18T07:31:45.127Z,35.70
2023-02-18T07:37:52.449Z,36.00
2023-02-18T07:44:03.600Z,36.30
2023-02-18T07:50:17.186Z,35.90
2023-02-18T07:56:26.385Z,35.60
2023-02-18T08:02:36.432Z,35.80
2023-02-18T08:08:46.363Z,36.10
2023-02-18T08:14:57.394Z,36.20
2023-02-18T08:21:09.374Z,35.60
2023-02-18T08:27:16.723Z,35.60
2023-02-18T08:33:27.410Z,35.90
2023-02-18T08:39:39.912Z,36.10
2023-02-18T08:45:50.954Z,36.00
2023-02-18T08:52:01.197Z,35.50
2023-02-18T08:58:11.084Z,35.60
2023-02-18T09:04:22.012Z,35.80
2023-02-18T09:10:31.058Z,36.00
2023-02-18T09:16:41.126Z,35.90
2023-02-18T09:22:52.095Z,35.30
2023-02-18T09:29:01.249Z,35.50
2023-02-18T09:35:10.281Z,35.80
2023-02-18T09:41:23.549Z,35.80
2023-02-18T09:47:35.836Z,35.60
2023-02-18T09:53:47.316Z,35.40
2023-02-18T09:59:58.611Z,35.50
2023-02-18T10:06:09.461Z,35.90
2023-02-18T10:12:19.395Z,35.80
2023-02-18T10:18:31.714Z,35.30
2023-02-18T10:24:43.599Z,35.40
2023-02-18T10:30:54.441Z,35.60
2023-02-18T10:37:08.040Z,35.90
2023-02-18T10:43:22.002Z,35.70
2023-02-18T10:49:48.271Z,35.20
2023-02-18T10:55:59.587Z,35.50
2023-02-18T11:02:14.790Z,35.80
2023-02-18T11:08:26.502Z,35.70
2023-02-18T11:14:45.426Z,35.30
2023-02-18T11:27:14.729Z,35.60
2023-02-18T11:33:24.870Z,35.90
2023-02-18T11:39:34.902Z,35.50
2023-02-18T11:45:46.475Z,35.00
2023-02-18T11:51:53.839Z,35.20
2023-02-18T11:58:05.655Z,35.50
2023-02-18T12:04:18.041Z,35.60
2023-02-18T12:10:31.085Z,35.20
2023-02-18T12:16:43.158Z,35.20
2023-02-18T12:22:56.488Z,35.60
2023-02-18T12:29:20.341Z,35.60
2023-02-18T12:35:44.257Z,35.50
2023-02-18T12:42:06.915Z,35.60
2023-02-18T12:48:33.775Z,35.60
2023-02-18T12:55:22.141Z,35.70
2023-02-18T13:01:44.210Z,35.60
2023-02-18T13:08:01.453Z,35.50
2023-02-18T13:14:13.651Z,35.50
2023-02-18T13:20:29.145Z,35.30
2023-02-18T13:26:38.741Z,34.70
2023-02-18T13:32:50.129Z,35.20
2023-02-18T13:39:06.966Z,34.90
2023-02-18T13:45:38.882Z,35.00
2023-02-18T13:51:49.150Z,34.30
2023-02-18T13:57:59.266Z,35.10
2023-02-18T14:04:23.570Z,35.70
2023-02-18T14:10:34.996Z,36.20
2023-02-18T14:17:19.179Z,34.80
2023-02-18T14:23:53.072Z,34.90
2023-02-18T14:30:09.111Z,34.80
2023-02-18T14:36:23.571Z,34.60
2023-02-18T14:42:37.072Z,35.20
2023-02-18T14:48:51.475Z,35.60
2023-02-18T14:55:03.721Z,34.30
2023-02-18T15:01:22.917Z,34.60
2023-02-18T15:07:33.879Z,34.80
2023-02-18T15:13:44.771Z,35.80
2023-02-18T15:19:56.433Z,35.30
2023-02-18T15:26:05.680Z,35.20
2023-02-18T15:32:21.224Z,34.40
2023-02-18T15:38:32.723Z,34.50
2023-02-18T15:44:46.302Z,34.50
2023-02-18T15:50:58.513Z,34.50
2023-02-18T15:57:08.227Z,34.30
2023-02-18T16:03:20.408Z,34.80
2023-02-18T16:09:32.111Z,35.30
2023-02-18T16:15:44.854Z,34.00
2023-02-18T16:21:57.836Z,33.90
2023-02-18T16:28:14.229Z,34.30
2023-02-18T16:34:22.938Z,35.20
2023-02-18T16:40:35.200Z,35.10
2023-02-18T16:46:47.771Z,34.20
2023-02-18T16:52:59.334Z,34.40
2023-02-18T16:59:08.927Z,35.10
2023-02-18T17:05:26.820Z,35.40
2023-02-18T17:11:34.119Z,34.90
2023-02-18T17:17:42.499Z,34.10
2023-02-18T17:23:52.462Z,34.30
2023-02-18T17:30:00.005Z,34.60
2023-02-18T17:36:12.154Z,35.10
2023-02-18T17:42:19.667Z,35.20
2023-02-18T17:48:29.957Z,35.00
2023-02-18T17:54:42.379Z,34.40
2023-02-18T18:00:53.807Z,34.20
2023-02-18T18:07:03.579Z,34.50
2023-02-18T18:13:15.281Z,35.10
2023-02-18T18:19:24.384Z,35.00
2023-02-18T18:25:32.887Z,34.90
2023-02-18T18:31:41.837Z,34.40
2023-02-18T18:37:50.454Z,34.40
2023-02-18T18:44:00.329Z,34.80
2023-02-18T18:50:10.951Z,35.00
2023-02-18T18:56:23.718Z,34.50
2023-02-18T19:02:33.896Z,34.60
2023-02-18T19:08:41.914Z,34.70
2023-02-18T19:14:51.052Z,35.10
2023-02-18T19:21:02.816Z,34.90
2023-02-18T19:27:14.980Z,34.70
2023-02-18T19:33:25.774Z,35.00
2023-02-18T19:39:36.510Z,35.00
2023-02-18T19:45:46.056Z,34.60
2023-02-18T19:51:54.946Z,34.60
2023-02-18T19:58:03.762Z,34.90
2023-02-18T20:04:12.603Z,35.10
2023-02-18T20:10:23.283Z,35.00
2023-02-18T20:16:32.580Z,34.50
2023-02-18T20:22:42.212Z,34.60
2023-02-18T20:28:50.463Z,34.80
2023-02-18T20:35:01.741Z,35.10
2023-02-18T20:41:12.122Z,35.10
2023-02-18T20:47:20.891Z,34.70
2023-02-18T20:53:31.578Z,34.70
2023-02-18T20:59:39.795Z,34.90
2023-02-18T21:05:51.524Z,35.20
2023-02-18T21:12:00.616Z,35.10
2023-02-18T21:18:09.087Z,34.70
2023-02-18T21:24:17.645Z,34.90
2023-02-18T21:30:28.778Z,35.20
2023-02-18T21:36:36.133Z,35.30
2023-02-18T21:42:44.540Z,35.10
2023-02-18T21:49:08.471Z,34.80
2023-02-18T21:55:18.576Z,34.80
2023-02-18T22:01:27.913Z,35.00
2023-02-18T22:07:39.905Z,35.30
2023-02-18T22:13:47.979Z,35.30
2023-02-18T22:19:58.039Z,35.00
2023-02-18T22:26:12.862Z,35.10
2023-02-18T22:32:24.030Z,35.40
2023-02-18T22:38:33.428Z,35.40
2023-02-18T22:44:41.102Z,35.30
2023-02-18T22:50:53.916Z,34.80
2023-02-18T22:57:04.622Z,35.20
2023-02-18T23:03:15.956Z,35.80
2023-02-18T23:09:28.473Z,36.30
2023-02-18T23:15:39.277Z,37.10
2023-02-18T23:21:49.208Z,35.90
2023-02-18T23:27:56.834Z,35.60
2023-02-18T23:34:06.428Z,36.60
2023-02-18T23:40:18.345Z,36.90
2023-02-18T23:46:29.301Z,36.80
2023-02-18T23:52:39.596Z,37.10
2023-02-18T23:58:50.317Z,37.60
